METAR AND TAF INFORMATION
METAR FOR LIBR
ADDS - METARS form results

(1512 UTC 18 November 2019)
Data provider http://aviationweather.gov/metar/data/
 
METAR text: LIBR 181450Z 10006KT CAVOK 17/11 Q1018
Conditions at: LIBR (BRINDISI/CASALE , IT) observed 1450 UTC 18 November 2019
Temperature: 17.0°C (63°F)
Dewpoint: 11.0°C (52°F) [RH = 68%]
Pressure (altimeter): 30.06 inches Hg (1018.0 mb)
Winds: from the E (100 degrees) at 7 MPH (6 knots; 3.1 m/s)
Visibility: 6 or more miles (10+ km)
Ceiling: ceiling and visibility are OK
Clouds: unknown
Weather: no significant weather observed at this time

METAR text: LIBR 181420Z 10007KT CAVOK 17/11 Q1018
Conditions at: LIBR (BRINDISI/CASALE , IT) observed 1420 UTC 18 November 2019
Temperature: 17.0°C (63°F)
Dewpoint: 11.0°C (52°F) [RH = 68%]
Pressure (altimeter): 30.06 inches Hg (1018.0 mb)
Winds: from the E (100 degrees) at 8 MPH (7 knots; 3.6 m/s)
Visibility: 6 or more miles (10+ km)
Ceiling: ceiling and visibility are OK
Clouds: unknown
Weather: no significant weather observed at this time

Forecast for: LIBR (BRINDISI/CASALE , IT)
Text: TAF LIBR 181100Z 1812/1912 15010KT CAVOK
Forecast period: 1200 UTC 18 November 2019 to 1200 UTC 19 November 2019
Forecast type: FROM: standard forecast or significant change
Winds: from the SSE (150 degrees) at 12 MPH (10 knots; 5.1 m/s)
Visibility: 6 or more miles 10+ km)
Ceiling: unknown
Clouds: missing
Weather: NSW  (no significant weather)

 AIRPORT MAP

 RUNWAY INFORMATION
Runway 05 Runway length 6132 ft Runway width 148 ft
Runway elevation 46 ft Runway displaced threshold 0 ft Runway heading 53
Runway 23 Runway length 6132 ft Runway width 148 ft
Runway elevation 13 ft Runway displaced threshold 230 ft Runway heading 233
Runway 13 Runway length 8307 ft Runway width 148 ft
Runway elevation 29 ft Runway displaced threshold 0 ft Runway heading 137
Runway 31 Runway length 8307 ft Runway width 148 ft
Runway elevation 26 ft Runway displaced threshold 0 ft Runway heading 317

 AIRPORT FREQUENCIES
Type APP Name BRINDISI A Frequency 36.365 MHZ
Type APP Name BRINDISI A Frequency 118.4 MHZ
Type GND Name GND Frequency 31.355 MHZ
Type ILS RWY 32 Name Frequency 109.5 MHZ
Type TWR Name BRINDISI T Frequency 118.1 MHZ

 AIRPORT NEAR NAVIGATION AIDS
Type VORTAC Name Brindisi Frequency 113200 KHZ
Type NDB Name Brindisi Frequency 364 KHZ



Powered by Virtual Airlines Manager [v2.6.2]